createdAt,value
2023-08-12T00:00:12.334Z,101904.00
2023-08-12T00:02:45.735Z,101904.22
2023-08-12T00:05:15.320Z,101899.44
2023-08-12T00:07:44.966Z,101897.13
2023-08-12T00:10:14.620Z,101912.81
2023-08-12T00:12:43.575Z,101913.63
2023-08-12T00:15:12.574Z,101907.81
2023-08-12T00:17:42.813Z,101900.72
2023-08-12T00:20:14.197Z,101901.53
2023-08-12T00:22:42.937Z,101905.28
2023-08-12T00:25:11.413Z,101896.31
2023-08-12T00:27:40.076Z,101888.56
2023-08-12T00:30:10.040Z,101883.16
2023-08-12T00:32:38.438Z,101898.00
2023-08-12T00:35:07.688Z,101890.25
2023-08-12T00:37:37.682Z,101871.03
2023-08-12T00:40:07.986Z,101882.09
2023-08-12T00:42:36.298Z,101876.25
2023-08-12T00:45:05.434Z,101872.06
2023-08-12T00:47:34.240Z,101869.56
2023-08-12T00:50:04.134Z,101872.50
2023-08-12T00:52:32.448Z,101863.28
2023-08-12T00:55:02.246Z,101858.09
2023-08-12T00:57:30.700Z,101868.50
2023-08-12T00:59:59.145Z,101871.22
2023-08-12T01:02:27.981Z,101865.59
2023-08-12T01:04:56.344Z,101862.91
2023-08-12T01:07:24.728Z,101827.16
2023-08-12T01:09:53.414Z,101836.56
2023-08-12T01:12:29.343Z,101844.06
2023-08-12T01:15:13.441Z,101836.56
2023-08-12T01:17:45.889Z,101830.50
2023-08-12T01:20:15.327Z,101838.25
2023-08-12T01:22:47.924Z,101833.41
2023-08-12T01:25:18.283Z,101835.28
2023-08-12T01:27:46.730Z,101838.22
2023-08-12T01:30:17.409Z,101811.72
2023-08-12T01:32:56.165Z,101804.38
2023-08-12T01:35:31.222Z,101835.50
2023-08-12T01:38:04.244Z,101787.06
2023-08-12T01:43:04.261Z,101824.44
2023-08-12T01:45:34.047Z,101802.91
2023-08-12T01:48:04.305Z,101810.44
2023-08-12T01:50:32.598Z,101813.38
2023-08-12T01:53:01.069Z,101820.25
2023-08-12T01:55:33.287Z,101804.38
2023-08-12T01:58:01.515Z,101806.66
2023-08-12T02:00:29.802Z,101811.69
2023-08-12T02:02:58.234Z,101814.41
2023-08-12T02:05:27.570Z,101813.38
2023-08-12T02:07:55.878Z,101809.19
2023-08-12T02:10:24.141Z,101801.25
2023-08-12T02:12:53.722Z,101801.22
2023-08-12T02:15:22.063Z,101805.41
2023-08-12T02:17:50.460Z,101748.84
2023-08-12T02:20:20.024Z,101784.09
2023-08-12T02:22:48.297Z,101802.47
2023-08-12T02:25:17.925Z,101786.81
2023-08-12T02:27:46.435Z,101797.88
2023-08-12T02:30:16.335Z,101796.22
2023-08-12T02:32:45.408Z,101783.91
2023-08-12T02:35:13.856Z,101789.50
2023-08-12T02:37:42.129Z,101786.59
2023-08-12T02:40:12.011Z,101770.97
2023-08-12T02:42:40.326Z,101785.13
2023-08-12T02:45:09.211Z,101778.66
2023-08-12T02:47:38.943Z,101770.94
2023-08-12T02:50:09.641Z,101770.94
2023-08-12T02:52:37.918Z,101756.75
2023-08-12T02:55:07.140Z,101738.78
2023-08-12T02:57:35.486Z,101746.09
2023-08-12T03:00:05.404Z,101755.09
2023-08-12T03:02:34.151Z,101751.78
2023-08-12T03:05:03.918Z,101762.41
2023-08-12T03:07:32.320Z,101752.00
2023-08-12T03:10:01.282Z,101750.69
2023-08-12T03:12:29.548Z,101757.59
2023-08-12T03:14:57.965Z,101735.88
2023-08-12T03:17:26.604Z,101729.44
2023-08-12T03:19:55.619Z,101747.19
2023-08-12T03:22:25.443Z,101735.69
2023-08-12T03:24:54.393Z,101734.44
2023-08-12T03:27:22.612Z,101725.88
2023-08-12T03:29:52.209Z,101728.59
2023-08-12T03:32:20.879Z,101697.28
2023-08-12T03:34:49.434Z,101696.41
2023-08-12T03:37:18.094Z,101724.41
2023-08-12T03:39:48.366Z,101707.28
2023-08-12T03:42:18.021Z,101719.00
2023-08-12T03:44:46.705Z,101719.41
2023-08-12T03:47:15.267Z,101713.78
2023-08-12T03:49:43.510Z,101712.09
2023-08-12T03:52:12.082Z,101686.81
2023-08-12T03:54:40.342Z,101672.00
2023-08-12T03:57:10.451Z,101700.41
2023-08-12T03:59:39.968Z,101700.59
2023-08-12T04:02:08.500Z,101708.94
2023-08-12T04:04:36.713Z,101696.22
2023-08-12T04:07:05.050Z,101690.16
2023-08-12T04:09:33.396Z,101682.03
2023-08-12T04:12:01.675Z,101647.16
2023-08-12T04:14:31.769Z,101668.28
2023-08-12T04:17:00.088Z,101661.97
2023-08-12T04:19:28.808Z,101654.47
2023-08-12T04:21:57.244Z,101605.03
2023-08-12T04:24:25.782Z,101660.13
2023-08-12T04:26:54.401Z,101665.13
2023-08-12T04:29:22.724Z,101665.34
2023-08-12T04:31:53.758Z,101675.38
2023-08-12T04:34:22.416Z,101673.25
2023-08-12T04:36:52.046Z,101643.19
2023-08-12T04:39:20.343Z,101646.53
2023-08-12T04:41:49.071Z,101665.09
2023-08-12T04:44:17.626Z,101639.00
2023-08-12T04:46:46.032Z,101668.69
2023-08-12T04:49:15.725Z,101664.72
2023-08-12T04:51:44.995Z,101659.06
2023-08-12T04:54:15.790Z,101651.97
2023-08-12T04:56:44.741Z,101643.63
2023-08-12T04:59:13.168Z,101644.66
2023-08-12T05:01:54.545Z,101639.63
2023-08-12T05:04:30.949Z,101635.47
2023-08-12T05:06:59.222Z,101633.38
2023-08-12T05:09:27.804Z,101634.44
2023-08-12T05:11:56.176Z,101635.69
2023-08-12T05:14:24.755Z,101635.69
2023-08-12T05:16:53.075Z,101629.63
2023-08-12T05:19:21.403Z,101635.88
2023-08-12T05:21:51.104Z,101594.41
2023-08-12T05:24:19.569Z,101637.13
2023-08-12T05:26:48.503Z,101633.59
2023-08-12T05:29:16.804Z,101633.81
2023-08-12T05:31:45.253Z,101610.44
2023-08-12T05:34:13.610Z,101627.31
2023-08-12T05:36:42.164Z,101629.63
2023-08-12T05:39:12.220Z,101633.19
2023-08-12T05:41:40.662Z,101626.69
2023-08-12T05:44:09.603Z,101618.38
2023-08-12T05:46:37.801Z,101626.31
2023-08-12T05:49:07.505Z,101616.09
2023-08-12T05:51:36.199Z,101636.53
2023-08-12T05:54:04.681Z,101612.97
2023-08-12T05:56:36.606Z,101632.97
2023-08-12T05:59:06.269Z,101619.38
2023-08-12T06:01:34.814Z,101635.28
2023-08-12T06:04:03.396Z,101627.34
2023-08-12T06:06:31.915Z,101625.88
2023-08-12T06:09:00.210Z,101584.78
2023-08-12T06:11:28.481Z,101620.88
2023-08-12T06:13:58.082Z,101607.91
2023-08-12T06:16:26.426Z,101560.81
2023-08-12T06:18:54.878Z,101619.59
2023-08-12T06:21:23.159Z,101618.31
2023-08-12T06:23:51.442Z,101607.47
2023-08-12T06:26:19.655Z,101569.69
2023-08-12T06:28:47.920Z,101622.94
2023-08-12T06:31:17.539Z,101620.63
2023-08-12T06:33:45.810Z,101593.53
2023-08-12T06:36:14.180Z,101607.94
2023-08-12T06:38:42.488Z,101557.19
2023-08-12T06:41:10.762Z,101599.59
2023-08-12T06:43:39.251Z,101603.16
2023-08-12T06:46:07.760Z,101607.72
2023-08-12T06:48:37.513Z,101554.34
2023-08-12T06:51:11.385Z,101603.16
2023-08-12T06:53:40.769Z,101594.38
2023-08-12T06:56:09.143Z,101607.13
2023-08-12T06:58:37.391Z,101585.63
2023-08-12T07:01:05.776Z,101606.69
2023-08-12T07:03:34.720Z,101586.03
2023-08-12T07:06:04.484Z,101610.84
2023-08-12T07:08:33.312Z,101585.81
2023-08-12T07:11:01.654Z,101607.75
2023-08-12T07:13:30.025Z,101609.63
2023-08-12T07:15:58.408Z,101610.22
2023-08-12T07:18:26.753Z,101609.19
2023-08-12T07:20:54.983Z,101616.72
2023-08-12T07:23:24.701Z,101615.66
2023-08-12T07:25:53.420Z,101614.84
2023-08-12T07:28:21.710Z,101574.72
2023-08-12T07:30:51.260Z,101620.00
2023-08-12T07:33:19.563Z,101577.03
2023-08-12T07:35:47.862Z,101608.78
2023-08-12T07:38:16.087Z,101617.75
2023-08-12T07:40:45.656Z,101609.81
2023-08-12T07:43:13.973Z,101536.78
2023-08-12T07:45:42.247Z,101607.81
2023-08-12T07:48:10.642Z,101615.00
2023-08-12T07:50:39.034Z,101621.06
2023-08-12T07:53:07.372Z,101604.91
2023-08-12T07:55:37.145Z,101630.56
2023-08-12T07:58:06.773Z,101641.88
2023-08-12T08:00:35.821Z,101653.59
2023-08-12T08:03:04.237Z,101655.22
2023-08-12T08:05:32.894Z,101664.00
2023-08-12T08:08:01.545Z,101602.94
2023-08-12T08:10:29.760Z,101676.41
2023-08-12T08:12:58.167Z,101677.38
2023-08-12T08:15:27.862Z,101616.03
2023-08-12T08:17:57.081Z,101693.84
2023-08-12T08:20:25.556Z,101692.91
2023-08-12T08:22:56.302Z,101702.72
2023-08-12T08:25:26.982Z,101669.03
2023-08-12T08:27:55.841Z,101639.25
2023-08-12T08:30:25.436Z,101691.34
2023-08-12T08:32:55.100Z,101680.41
2023-08-12T08:35:23.753Z,101655.03
2023-08-12T08:37:52.077Z,101658.03
2023-08-12T08:40:22.004Z,101643.28
2023-08-12T08:42:55.148Z,101663.28
2023-08-12T08:45:24.856Z,101652.81
2023-08-12T08:47:59.042Z,101667.09
2023-08-12T08:50:28.040Z,101654.41
2023-08-12T08:52:58.398Z,101656.94
2023-08-12T08:55:27.051Z,101691.16
2023-08-12T08:58:02.229Z,101707.81
2023-08-12T09:00:31.030Z,101735.72
2023-08-12T09:03:01.547Z,101707.63
2023-08-12T09:05:31.458Z,101711.91
2023-08-12T09:08:01.849Z,101693.50
2023-08-12T09:10:32.134Z,101694.13
2023-08-12T09:13:00.472Z,101686.34
2023-08-12T09:15:28.874Z,101689.53
2023-08-12T09:17:58.188Z,101684.41
2023-08-12T09:20:28.620Z,101694.44
2023-08-12T09:23:01.891Z,101706.97
2023-08-12T09:25:31.251Z,101692.66
2023-08-12T09:28:01.911Z,101696.09
2023-08-12T09:30:32.533Z,101700.81
2023-08-12T09:33:05.628Z,101732.81
2023-08-12T09:35:37.778Z,101691.25
2023-08-12T09:38:08.928Z,101728.91
2023-08-12T09:40:38.857Z,101724.19
2023-08-12T09:43:07.969Z,101699.25
2023-08-12T09:45:37.967Z,101724.06
2023-08-12T09:48:09.095Z,101713.31
2023-08-12T09:50:39.203Z,101731.97
2023-08-12T09:53:07.988Z,101732.34
2023-08-12T09:55:38.586Z,101696.97
2023-08-12T09:58:12.176Z,101735.94
2023-08-12T10:00:42.586Z,101723.19
2023-08-12T10:03:15.412Z,101723.72
2023-08-12T10:05:46.098Z,101738.34
2023-08-12T10:08:16.186Z,101720.00
2023-08-12T10:10:56.062Z,101697.47
2023-08-12T10:13:31.974Z,101723.56
2023-08-12T10:16:00.710Z,101708.91
2023-08-12T10:18:30.989Z,101731.88
2023-08-12T10:21:02.660Z,101714.75
2023-08-12T10:23:31.920Z,101721.84
2023-08-12T10:26:02.060Z,101729.97
2023-08-12T10:28:32.782Z,101681.94
2023-08-12T10:31:01.207Z,101698.81
2023-08-12T10:33:29.900Z,101673.34
2023-08-12T10:36:00.001Z,101723.09
2023-08-12T10:38:28.723Z,101723.63
2023-08-12T10:41:18.887Z,101678.75
2023-08-12T10:44:07.383Z,101696.84
2023-08-12T10:46:37.563Z,101720.38
2023-08-12T10:49:08.819Z,101689.91
2023-08-12T10:51:48.309Z,101727.13
2023-08-12T10:54:18.547Z,101690.97
2023-08-12T10:57:16.014Z,101699.22
2023-08-12T10:59:59.581Z,101703.91
2023-08-12T11:02:33.938Z,101731.94
2023-08-12T11:05:05.241Z,101687.94
2023-08-12T11:07:44.233Z,101664.75
2023-08-12T11:10:15.776Z,101713.66
2023-08-12T11:12:50.972Z,101687.59
2023-08-12T11:15:20.839Z,101712.13
2023-08-12T11:17:50.771Z,101726.22
2023-08-12T11:20:19.956Z,101721.19
2023-08-12T11:22:49.814Z,101728.06
2023-08-12T11:25:20.534Z,101713.47
2023-08-12T11:27:50.296Z,101719.66
2023-08-12T11:30:21.417Z,101691.72
2023-08-12T11:32:52.289Z,101691.53
2023-08-12T11:35:22.150Z,101715.06
2023-08-12T11:37:54.316Z,101713.00
2023-08-12T11:40:23.228Z,101713.69
2023-08-12T11:42:53.470Z,101717.22
2023-08-12T11:45:24.847Z,101667.94
2023-08-12T11:47:55.371Z,101708.09
2023-08-12T11:50:26.486Z,101692.44
2023-08-12T11:52:58.336Z,101710.97
2023-08-12T11:55:27.666Z,101716.81
2023-08-12T11:57:56.046Z,101690.88
2023-08-12T12:00:27.411Z,101715.75
2023-08-12T12:02:58.685Z,101713.38
2023-08-12T12:05:31.231Z,101688.03
2023-08-12T12:08:02.277Z,101709.44
2023-08-12T12:10:34.880Z,101696.81
2023-08-12T12:13:06.107Z,101706.44
2023-08-12T12:15:40.603Z,101715.31
2023-08-12T12:18:13.686Z,101720.53
2023-08-12T12:20:56.804Z,101710.66
2023-08-12T12:23:30.113Z,101719.19
2023-08-12T12:26:03.206Z,101719.59
2023-08-12T12:28:33.042Z,101733.22
2023-08-12T12:31:01.419Z,101698.56
2023-08-12T12:33:29.824Z,101699.13
2023-08-12T12:36:01.030Z,101737.41
2023-08-12T12:38:32.285Z,101721.22
2023-08-12T12:41:00.552Z,101743.38
2023-08-12T12:43:28.822Z,101743.75
2023-08-12T12:45:57.292Z,101743.97
2023-08-12T12:48:25.627Z,101753.31
2023-08-12T12:50:53.881Z,101740.13
2023-08-12T12:53:22.165Z,101741.84
2023-08-12T12:55:52.074Z,101746.00
2023-08-12T12:58:20.502Z,101738.50
2023-08-12T13:00:48.767Z,101749.22
2023-08-12T13:03:17.417Z,101717.81
2023-08-12T13:05:45.775Z,101754.22
2023-08-12T13:08:14.132Z,101757.78
2023-08-12T13:10:42.498Z,101756.00
2023-08-12T13:13:12.413Z,101765.03
2023-08-12T13:15:40.945Z,101759.06
2023-08-12T13:18:09.584Z,101720.81
2023-08-12T13:20:38.502Z,101746.72
2023-08-12T13:23:07.289Z,101744.25
2023-08-12T13:25:36.492Z,101760.75
2023-08-12T13:28:06.282Z,101739.56
2023-08-12T13:30:36.665Z,101722.72
2023-08-12T13:33:06.047Z,101704.34
2023-08-12T13:35:34.651Z,101754.59
2023-08-12T13:38:02.956Z,101749.50
2023-08-12T13:40:32.280Z,101751.06
2023-08-12T13:43:00.996Z,101717.63
2023-08-12T13:45:29.635Z,101729.38
2023-08-12T13:47:59.324Z,101749.91
2023-08-12T13:50:27.846Z,101723.22
2023-08-12T13:52:56.377Z,101755.00
2023-08-12T13:55:24.962Z,101730.34
2023-08-12T13:57:53.655Z,101754.94
2023-08-12T14:00:22.052Z,101752.88
2023-08-12T14:02:50.561Z,101750.44
2023-08-12T14:05:21.048Z,101745.19
2023-08-12T14:07:49.470Z,101746.47
2023-08-12T14:10:17.975Z,101741.84
2023-08-12T14:12:46.206Z,101741.78
2023-08-12T14:15:14.593Z,101750.16
2023-08-12T14:17:44.378Z,101754.84
2023-08-12T14:20:16.300Z,101752.19
2023-08-12T14:22:46.295Z,101742.97
2023-08-12T14:25:14.907Z,101750.59
2023-08-12T14:27:43.786Z,101736.88
2023-08-12T14:30:13.892Z,101744.28
2023-08-12T14:32:42.224Z,101715.84
2023-08-12T14:35:11.174Z,101739.19
2023-08-12T14:37:39.395Z,101724.53
2023-08-12T14:40:10.869Z,101707.41
2023-08-12T14:42:39.214Z,101726.53
2023-08-12T14:45:09.438Z,101736.78
2023-08-12T14:47:37.618Z,101716.81
2023-08-12T14:50:07.146Z,101726.28
2023-08-12T14:52:35.625Z,101746.28
2023-08-12T14:55:04.327Z,101723.88
2023-08-12T14:57:34.159Z,101743.38
2023-08-12T15:00:02.550Z,101751.88
2023-08-12T15:02:33.092Z,101754.59
2023-08-12T15:05:03.033Z,101714.22
2023-08-12T15:07:31.282Z,101749.16
2023-08-12T15:10:00.444Z,101750.38
2023-08-12T15:12:29.252Z,101744.09
2023-08-12T15:14:59.532Z,101733.56
2023-08-12T15:17:27.871Z,101727.72
2023-08-12T15:19:56.497Z,101742.44
2023-08-12T15:22:25.111Z,101737.63
2023-08-12T15:24:54.233Z,101729.22
2023-08-12T15:27:22.714Z,101751.81
2023-08-12T15:29:51.006Z,101761.72
2023-08-12T15:32:20.605Z,101759.81
2023-08-12T15:34:48.904Z,101749.88
2023-08-12T15:37:17.153Z,101766.44
2023-08-12T15:39:45.718Z,101748.25
2023-08-12T15:42:13.949Z,101753.94
2023-08-12T15:44:43.003Z,101734.84
2023-08-12T15:47:11.722Z,101762.22
2023-08-12T15:49:41.697Z,101765.91
2023-08-12T15:52:10.080Z,101755.53
2023-08-12T15:54:38.353Z,101765.28
2023-08-12T15:57:08.948Z,101740.31
2023-08-12T15:59:37.272Z,101752.19
2023-08-12T16:02:05.806Z,101755.03
2023-08-12T16:04:34.216Z,101747.19
2023-08-12T16:07:03.892Z,101747.19
2023-08-12T16:09:32.221Z,101744.91
2023-08-12T16:12:00.494Z,101741.47
2023-08-12T16:14:28.665Z,101697.84
2023-08-12T16:16:56.849Z,101739.69
2023-08-12T16:19:25.325Z,101738.91
2023-08-12T16:21:53.548Z,101736.28
2023-08-12T16:24:23.502Z,101714.44
2023-08-12T16:26:51.743Z,101733.13
2023-08-12T16:29:20.047Z,101738.22
2023-08-12T16:31:48.441Z,101714.06
2023-08-12T16:34:16.693Z,101730.69
2023-08-12T16:36:45.077Z,101728.47
2023-08-12T16:39:13.281Z,101740.78
2023-08-12T16:41:43.347Z,101720.25
2023-08-12T16:44:11.660Z,101746.16
2023-08-12T16:46:40.909Z,101733.22
2023-08-12T16:49:09.200Z,101745.09
2023-08-12T16:51:37.404Z,101736.41
2023-08-12T16:54:06.043Z,101724.53
2023-08-12T16:56:34.231Z,101729.13
2023-08-12T16:59:04.353Z,101731.28
2023-08-12T17:01:32.931Z,101741.66
2023-08-12T17:04:02.649Z,101740.75
2023-08-12T17:06:30.946Z,101713.88
2023-08-12T17:08:59.223Z,101731.34
2023-08-12T17:11:27.597Z,101745.28
2023-08-12T17:13:56.059Z,101742.00
2023-08-12T17:16:25.867Z,101739.81
2023-08-12T17:18:54.238Z,101718.06
2023-08-12T17:21:22.578Z,101737.34
2023-08-12T17:23:51.060Z,101732.66
2023-08-12T17:26:19.443Z,101739.28
2023-08-12T17:28:47.663Z,101729.78
2023-08-12T17:31:17.450Z,101714.09
2023-08-12T17:33:47.792Z,101720.44
2023-08-12T17:36:16.022Z,101733.31
2023-08-12T17:38:43.205Z,101702.06
2023-08-12T17:41:11.417Z,101730.44
2023-08-12T17:43:42.480Z,101727.72
2023-08-12T17:46:13.401Z,101734.28
2023-08-12T17:48:42.015Z,101730.25
2023-08-12T17:51:13.927Z,101710.59
2023-08-12T17:53:42.438Z,101739.00
2023-08-12T17:56:10.884Z,101735.84
2023-08-12T17:58:39.338Z,101721.97
2023-08-12T18:01:08.037Z,101733.88
2023-08-12T18:03:36.464Z,101747.31
2023-08-12T18:06:06.015Z,101730.53
2023-08-12T18:08:35.849Z,101735.16
2023-08-12T18:11:04.959Z,101746.72
2023-08-12T18:13:33.283Z,101740.28
2023-08-12T18:16:01.760Z,101759.41
2023-08-12T18:18:31.264Z,101775.69
2023-08-12T18:20:59.699Z,101751.59
2023-08-12T18:23:30.004Z,101749.19
2023-08-12T18:25:59.698Z,101773.41
2023-08-12T18:28:28.119Z,101781.59
2023-08-12T18:30:56.482Z,101780.97
2023-08-12T18:33:24.688Z,101782.19
2023-08-12T18:35:52.973Z,101782.44
2023-08-12T18:38:21.280Z,101759.06
2023-08-12T18:40:49.524Z,101769.50
2023-08-12T18:43:19.236Z,101790.78
2023-08-12T18:45:47.479Z,101792.69
2023-08-12T18:48:15.936Z,101801.66
2023-08-12T18:50:44.393Z,101797.25
2023-08-12T18:53:13.186Z,101799.78
2023-08-12T18:55:41.452Z,101806.91
2023-08-12T18:58:09.879Z,101814.00
2023-08-12T19:00:39.471Z,101806.06
2023-08-12T19:03:08.436Z,101808.13
2023-08-12T19:05:37.658Z,101807.50
2023-08-12T19:08:06.733Z,101805.63
2023-08-12T19:10:35.159Z,101791.34
2023-08-12T19:13:03.453Z,101810.34
2023-08-12T19:15:31.811Z,101810.34
2023-08-12T19:18:01.471Z,101808.44
2023-08-12T19:20:29.786Z,101770.81
2023-08-12T19:22:58.051Z,101802.53
2023-08-12T19:25:26.301Z,101818.84
2023-08-12T19:27:54.621Z,101824.72
2023-08-12T19:30:23.017Z,101819.25
2023-08-12T19:32:53.552Z,101801.06
2023-08-12T19:35:23.914Z,101802.91
2023-08-12T19:37:52.973Z,101831.09
2023-08-12T19:40:21.895Z,101830.47
2023-08-12T19:42:50.144Z,101835.00
2023-08-12T19:45:18.587Z,101830.16
2023-08-12T19:47:47.019Z,101835.97
2023-08-12T19:50:15.387Z,101827.31
2023-08-12T19:52:44.976Z,101814.09
2023-08-12T19:55:13.224Z,101849.44
2023-08-12T19:57:41.884Z,101818.25
2023-08-12T20:00:11.841Z,101850.22
2023-08-12T20:02:42.524Z,101834.09
2023-08-12T20:05:16.315Z,101835.91
2023-08-12T20:07:47.994Z,101815.03
2023-08-12T20:10:18.028Z,101854.09
2023-08-12T20:12:47.455Z,101855.16
2023-08-12T20:15:16.236Z,101854.69
2023-08-12T20:17:45.650Z,101829.97
2023-08-12T20:20:18.282Z,101846.25
2023-08-12T20:25:21.828Z,101828.38
2023-08-12T20:27:50.036Z,101847.38
2023-08-12T20:30:18.306Z,101847.59
2023-08-12T20:32:46.600Z,101828.00
2023-08-12T20:35:14.978Z,101851.81
2023-08-12T20:37:43.300Z,101823.38
2023-08-12T20:40:14.743Z,101837.81
2023-08-12T20:42:43.001Z,101838.19
2023-08-12T20:45:13.305Z,101836.22
2023-08-12T20:47:42.429Z,101840.75
2023-08-12T20:50:12.628Z,101836.84
2023-08-12T20:52:40.904Z,101838.06
2023-08-12T20:55:10.326Z,101832.44
2023-08-12T20:57:39.926Z,101832.00
2023-08-12T21:00:12.997Z,101839.06
2023-08-12T21:02:43.851Z,101833.78
2023-08-12T21:05:12.153Z,101833.97
2023-08-12T21:07:40.590Z,101834.59
2023-08-12T21:10:11.288Z,101815.16
2023-08-12T21:12:41.381Z,101839.25
2023-08-12T21:15:10.605Z,101814.78
2023-08-12T21:17:38.990Z,101839.91
2023-08-12T21:20:09.923Z,101836.16
2023-08-12T21:22:38.080Z,101819.34
2023-08-12T21:25:08.076Z,101844.16
2023-08-12T21:27:36.296Z,101838.13
2023-08-12T21:30:07.380Z,101845.94
2023-08-12T21:32:35.721Z,101837.34
2023-08-12T21:35:04.048Z,101842.38
2023-08-12T21:37:32.263Z,101846.31
2023-08-12T21:40:00.717Z,101848.56
2023-08-12T21:42:28.995Z,101854.31
2023-08-12T21:44:57.329Z,101853.84
2023-08-12T21:47:27.252Z,101853.97
2023-08-12T21:49:55.597Z,101818.94
2023-08-12T21:52:23.815Z,101859.84
2023-08-12T21:54:52.037Z,101867.22
2023-08-12T21:57:20.659Z,101867.69
2023-08-12T21:59:48.964Z,101856.09
2023-08-12T22:02:26.080Z,101826.56
2023-08-12T22:04:55.077Z,101868.97
2023-08-12T22:07:24.016Z,101861.03
2023-08-12T22:09:52.474Z,101837.59
2023-08-12T22:12:20.898Z,101868.44
2023-08-12T22:14:49.253Z,101863.16
2023-08-12T22:17:17.597Z,101865.22
2023-08-12T22:19:48.880Z,101862.25
2023-08-12T22:22:19.633Z,101835.03
2023-08-12T22:24:48.693Z,101809.53
2023-08-12T22:27:17.047Z,101848.13
2023-08-12T22:29:45.514Z,101853.63
2023-08-12T22:32:14.181Z,101849.31
2023-08-12T22:34:42.610Z,101831.09
2023-08-12T22:37:12.335Z,101851.50
2023-08-12T22:39:40.575Z,101848.63
2023-08-12T22:42:09.198Z,101850.66
2023-08-12T22:44:37.511Z,101859.31
2023-08-12T22:47:06.850Z,101861.09
2023-08-12T22:49:35.104Z,101849.44
2023-08-12T22:52:03.308Z,101826.53
2023-08-12T22:54:35.002Z,101862.94
2023-08-12T22:57:03.195Z,101865.03
2023-08-12T22:59:31.356Z,101856.94
2023-08-12T23:01:59.683Z,101862.22
2023-08-12T23:04:27.938Z,101858.22
2023-08-12T23:06:56.125Z,101861.38
2023-08-12T23:09:24.779Z,101842.00
2023-08-12T23:11:54.404Z,101864.84
2023-08-12T23:14:22.705Z,101867.72
2023-08-12T23:16:51.291Z,101830.38
2023-08-12T23:19:19.823Z,101861.28
2023-08-12T23:21:48.237Z,101854.84
2023-08-12T23:24:16.498Z,101854.28
2023-08-12T23:26:47.433Z,101853.25
2023-08-12T23:29:17.247Z,101857.91
2023-08-12T23:31:45.577Z,101860.06
2023-08-12T23:34:13.938Z,101858.84
2023-08-12T23:36:42.201Z,101855.69
2023-08-12T23:39:11.695Z,101836.72
2023-08-12T23:41:40.151Z,101848.84
2023-08-12T23:44:08.826Z,101867.25
2023-08-12T23:46:38.682Z,101861.13
2023-08-12T23:49:07.565Z,101864.75
2023-08-12T23:51:35.945Z,101864.28
2023-08-12T23:54:04.259Z,101854.94
2023-08-12T23:56:32.479Z,101856.38
2023-08-12T23:59:00.681Z,101852.72
